Garrard, KY (40941)

9:43 PM EDT on July 30, 2014 (GMT -0400)
RAWS PEABODY KY US (MCHTK2) Elev 1464 ft | 37.14 °N, 83.58 °W | Change Station

Current weather conditions updated 42 minutes ago

Clear
Clear
67 °F
Feels Like 67 °F
N
0
Wind Variable Wind from North
Gusts 0.0 mph

Tomorrow is forecast to be Warmer than today.

Today
High -- | Low -- °F
--% Chance of Precip.
Yesterday
High -- | Low -- °F
Precip. -- in
6:38 AM 8:44 PM
Waxing Crescent, 15% visible
Pressure 30.07 in
Visibility 10.0 miles
Clouds Clear
Dew Point 61 °F
Humidity 81%
Rainfall 0.00 in
Snow Depth Not available.
UV 0 out of 12
Pollen 4.60 out of 12
Air Quality Not available.
Flu Activity Not available.
METAR KLOZ 310053Z AUTO 00000KT 10SM CLR 23/14 A3010 RMK AO2 SLP182 T02330144

More Conditions Fewer Conditions

Pressure 30.07 in
Visibility 10.0 miles
Clouds Clear
Dew Point 61 °F
Humidity 81%
Rainfall 0.00 in
Snow Depth Not available.
UV 0 out of 12
Pollen 4.60 out of 12
Air Quality Not available.
Flu Activity Not available.
METAR KLOZ 310053Z AUTO 00000KT 10SM CLR 23/14 A3010 RMK AO2 SLP182 T02330144

More Conditions Fewer Conditions

10-Day Weather Forecast

Almanac

Astronomy

Jul. 30, 2014 Rise Set
Actual Time 6:38 AM EDT 8:44 PM EDT
Civil Twilight 6:09 AM EDT 9:12 PM EDT
Nautical Twilight 5:33 AM EDT 9:48 PM EDT
Astronomical Twilight 4:55 AM EDT 10:26 PM EDT
Moon 10:03 AM EDT (7/30) 10:32 PM EDT (7/30)
Length of Visible Light 15h 03m
Length of Day
14h 05m
Tomorrow will be 1m 44s shorter.
Waxing Crescent, 15% of the Moon is Illuminated
Today
Waxing Crescent
Aug 3
First Quarter
Aug 10
Full
Aug 17
Last Quarter
Aug 25
New

Today's Extremes

State Highs State Lows

Community

WunderPhotos

Upload Photos

1,739,264 photos uploaded!

Nearby

Snow Depth

Station Depth Elevation
No new snow has been reported.

Earthquake Activity

City Distance Mag. Time & Date
No recent earthquake activity has been reported nearby.
Minimum magnitude displayed is 2.5.

Coastal Water Temperatures

Place Temperature
No Stations Reporting

Nearby Weather Stations

Station Location Temp. Dew Point Humidity Wind Precip. Elev Updated Type
APRSWXNET London KY US, Fall Rock, KY 70 °F 65 °F 85% North  at  0 mph 0.00 in / hr 1515 ft 8:17 PM EDT MADIS
RAWS PEABODY KY, Big Creek, KY 67 °F 61 °F 81% North  at  0 mph 0.00 in / hr 1464 ft 9:01 PM EDT MADIS
MSWO, London, KY 65.7 °F 59 °F 78% West  at  0.0 mph 0.00 in / hr 1163 ft 9:43 PM EDT Rapid Fire
Southern McKee, McKee, KY 63.1 °F 58 °F 83% NNE  at  0.0 mph 0.00 in / hr 1138 ft 9:43 PM EDT Rapid Fire
liford's, Barbourville, KY 65.3 °F 60 °F 82% NE  at  0.0 mph - / hr 1066 ft 9:42 PM EDT Normal
Mackey Bend, Barbourville, KY 63.9 °F 62 °F 95% North  at  0.0 mph 0.00 in / hr 1020 ft 9:43 PM EDT Rapid Fire

Show More Stations Show Fewer Stations